Time;durP1;ratioP1;P1;durP2;ratioP2;P2;SDS_P1;SDS_P2;PMS_P1;PMS_P2;Temp;Humidity;BMP_temperature;BMP_pressure;BME280_temperature;BME280_humidity;BME280_pressure;Samples;Min_cycle;Max_cycle;Signal;HPM_P1;HPM_P2
2023/09/07 00:01:48;;;;;;;8.70;6.47;;;18.50;1.00;;;;;;6132776;23;20201;-88
2023/09/07 00:04:14;;;;;;;9.17;6.53;;;17.40;1.00;;;;;;6133324;23;20157;-91
2023/09/07 00:06:43;;;;;;;15.17;7.00;;;17.60;1.00;;;;;;6133082;23;20174;-91
2023/09/07 00:09:11;;;;;;;10.77;7.40;;;18.10;1.00;;;;;;6133914;23;20599;-90
2023/09/07 00:11:37;;;;;;;11.47;7.50;;;17.30;1.00;;;;;;6133181;23;20244;-89
2023/09/07 00:14:03;;;;;;;9.77;7.07;;;17.20;1.00;;;;;;6135109;23;20157;-89
2023/09/07 00:16:35;;;;;;;12.97;7.10;;;17.30;1.00;;;;;;6135137;23;20614;-89
2023/09/07 00:19:00;;;;;;;8.77;7.10;;;17.20;1.00;;;;;;6136829;23;20177;-92
2023/09/07 00:21:26;;;;;;;10.47;7.17;;;17.10;1.00;;;;;;6135737;23;20153;-89
2023/09/07 00:23:55;;;;;;;9.40;7.30;;;17.70;1.00;;;;;;6162864;23;20180;-91
2023/09/07 00:26:21;;;;;;;8.57;7.00;;;17.10;1.00;;;;;;6136657;23;20177;-92
2023/09/07 00:28:47;;;;;;;9.50;6.53;;;16.90;1.00;;;;;;6136698;23;20153;-87
2023/09/07 00:31:13;;;;;;;9.33;6.87;;;18.60;1.00;;;;;;6112267;23;20173;-91
2023/09/07 00:33:38;;;;;;;8.13;6.50;;;17.10;1.00;;;;;;6136970;23;20157;-92
2023/09/07 00:36:04;;;;;;;10.47;6.00;;;17.90;7.50;;;;;;6139235;23;20217;-91
2023/09/07 00:38:30;;;;;;;8.90;6.20;;;17.20;8.50;;;;;;6136327;23;20181;-91
2023/09/07 00:40:56;;;;;;;10.77;6.97;;;17.20;12.40;;;;;;6136135;23;20527;-90
2023/09/07 00:43:24;;;;;;;8.67;6.40;;;17.80;14.20;;;;;;6134913;23;20157;-91
2023/09/07 00:45:50;;;;;;;7.10;5.90;;;18.10;17.00;;;;;;6136311;23;20178;-90
2023/09/07 00:48:16;;;;;;;7.10;5.83;;;17.30;19.70;;;;;;6147444;23;20195;-92
2023/09/07 00:50:42;;;;;;;9.03;6.13;;;17.30;19.00;;;;;;6161120;23;20158;-91
2023/09/07 00:53:08;;;;;;;7.37;6.07;;;18.60;22.70;;;;;;6161592;23;20162;-91
2023/09/07 00:55:35;;;;;;;8.57;5.87;;;17.20;17.90;;;;;;6160272;23;20626;-91
2023/09/07 00:58:06;;;;;;;8.70;5.97;;;17.40;17.90;;;;;;6161133;23;20192;-92
2023/09/07 01:00:34;;;;;;;8.10;5.93;;;17.30;16.30;;;;;;6138771;23;20265;-90
2023/09/07 01:03:00;;;;;;;9.77;5.93;;;17.40;17.70;;;;;;6162411;23;20162;-89
2023/09/07 01:05:49;;;;;;;7.63;5.60;;;17.30;19.30;;;;;;6139524;23;20233;-90
2023/09/07 01:08:23;;;;;;;7.77;5.20;;;17.20;17.80;;;;;;6138726;23;20685;-88
2023/09/07 01:10:48;;;;;;;7.43;5.40;;;17.20;16.90;;;;;;6158734;23;20153;-90
2023/09/07 01:13:14;;;;;;;7.87;5.43;;;17.10;16.30;;;;;;6160319;23;20242;-90
2023/09/07 01:15:39;;;;;;;7.33;5.70;;;17.10;15.80;;;;;;6159435;23;20305;-89
2023/09/07 01:18:06;;;;;;;9.83;6.27;;;17.10;16.00;;;;;;6159547;23;20194;-89
2023/09/07 01:20:33;;;;;;;13.13;6.30;;;17.00;22.60;;;;;;6158887;23;20164;-89
2023/09/07 01:23:00;;;;;;;7.37;6.07;;;17.30;21.00;;;;;;6158121;23;20185;-90
2023/09/07 01:25:28;;;;;;;8.93;6.47;;;16.90;22.60;;;;;;6157910;23;20630;-85
2023/09/07 01:27:53;;;;;;;10.40;6.33;;;16.90;24.60;;;;;;6159451;23;20161;-90
2023/09/07 01:30:20;;;;;;;8.03;6.50;;;16.80;26.70;;;;;;6159622;23;20214;-88
2023/09/07 01:32:46;;;;;;;10.87;6.43;;;17.10;26.90;;;;;;6157988;23;20188;-89
2023/09/07 01:35:14;;;;;;;8.27;5.93;;;16.80;24.60;;;;;;6158371;23;20186;-86
2023/09/07 01:37:40;;;;;;;9.90;7.27;;;16.80;24.80;;;;;;6133982;23;20679;-87
2023/09/07 01:40:07;;;;;;;8.80;6.97;;;16.50;22.80;;;;;;6159908;23;20208;-90
2023/09/07 01:42:36;;;;;;;9.73;7.23;;;16.70;22.60;;;;;;6157756;23;20182;-88
2023/09/07 01:45:01;;;;;;;10.57;7.10;;;16.60;22.40;;;;;;6157973;23;20162;-91
2023/09/07 01:47:27;;;;;;;9.57;6.70;;;16.50;23.10;;;;;;6158452;23;20177;-90
2023/09/07 01:49:52;;;;;;;8.77;7.00;;;16.50;24.40;;;;;;6158295;23;20583;-90
2023/09/07 01:52:18;;;;;;;14.63;7.33;;;16.60;26.50;;;;;;6158826;23;20208;-88
2023/09/07 01:54:43;;;;;;;11.53;7.40;;;16.60;28.80;;;;;;6143242;23;20482;-91
2023/09/07 01:57:09;;;;;;;14.67;7.63;;;16.50;29.40;;;;;;6158252;23;20189;-93
2023/09/07 01:59:34;;;;;;;9.97;6.50;;;17.40;30.80;;;;;;6159283;23;20277;-88
2023/09/07 02:02:00;;;;;;;8.33;6.83;;;16.30;34.10;;;;;;6159415;23;20208;-88
2023/09/07 02:04:26;;;;;;;11.97;7.33;;;16.80;37.50;;;;;;6159529;23;20165;-90
2023/09/07 02:06:52;;;;;;;9.03;6.97;;;16.40;39.20;;;;;;6159220;23;20184;-87
2023/09/07 02:09:17;;;;;;;10.87;6.93;;;16.40;39.40;;;;;;6157862;23;20216;-89
2023/09/07 02:11:43;;;;;;;12.13;7.27;;;16.70;39.60;;;;;;6159476;23;20185;-90
2023/09/07 02:14:09;;;;;;;7.83;6.60;;;16.30;39.00;;;;;;6158994;23;20168;-91
2023/09/07 02:16:34;;;;;;;9.17;6.27;;;16.20;39.80;;;;;;6159568;23;20521;-91
2023/09/07 02:19:06;;;;;;;8.57;6.40;;;16.30;40.90;;;;;;6160137;23;20319;-90
2023/09/07 02:21:32;;;;;;;9.23;6.80;;;16.30;48.00;;;;;;6135476;23;20168;-91
2023/09/07 02:23:58;;;;;;;9.17;6.43;;;16.70;51.10;;;;;;6158377;23;20598;-92
2023/09/07 02:26:24;;;;;;;10.63;6.67;;;16.70;55.90;;;;;;6169762;23;20193;-91
2023/09/07 02:28:49;;;;;;;14.13;7.13;;;16.40;59.90;;;;;;6162461;23;20165;-91
2023/09/07 02:31:15;;;;;;;8.97;5.70;;;16.60;58.20;;;;;;6158270;23;20166;-89
2023/09/07 02:33:40;;;;;;;8.77;6.07;;;16.40;58.40;;;;;;6159588;23;20168;-90
2023/09/07 02:36:06;;;;;;;9.40;6.13;;;16.40;55.30;;;;;;6159765;23;20268;-91
2023/09/07 02:38:32;;;;;;;10.43;6.73;;;16.30;54.00;;;;;;6159407;23;20556;-91
2023/09/07 02:41:02;;;;;;;9.50;6.53;;;16.40;56.30;;;;;;6158440;23;20158;-91
2023/09/07 02:43:29;;;;;;;8.20;5.90;;;16.60;58.80;;;;;;6158522;23;20494;-91
2023/09/07 02:45:54;;;;;;;10.30;6.27;;;16.50;55.80;;;;;;6159395;23;20174;-90
2023/09/07 02:48:20;;;;;;;9.23;6.33;;;16.40;53.90;;;;;;6158601;23;20191;-90
2023/09/07 02:50:49;;;;;;;9.50;5.73;;;16.40;54.90;;;;;;6160179;23;20547;-87
2023/09/07 02:53:15;;;;;;;8.97;5.83;;;16.30;67.90;;;;;;6160790;23;20172;-90
2023/09/07 02:55:41;;;;;;;9.30;5.77;;;16.30;69.10;;;;;;6159803;23;20186;-90
2023/09/07 02:58:06;;;;;;;10.47;6.50;;;16.40;69.00;;;;;;6157896;23;20192;-86
2023/09/07 03:00:32;;;;;;;8.03;6.03;;;16.50;66.30;;;;;;6158245;23;20160;-89
2023/09/07 03:02:58;;;;;;;8.33;6.37;;;17.20;63.60;;;;;;6158161;23;20158;-90
2023/09/07 03:05:28;;;;;;;8.43;6.57;;;17.10;66.40;;;;;;6158713;23;20562;-90
2023/09/07 03:07:54;;;;;;;8.93;5.60;;;18.00;59.50;;;;;;6159427;23;20167;-90
2023/09/07 03:10:19;;;;;;;10.47;6.17;;;16.60;54.80;;;;;;6159084;23;20193;-90
2023/09/07 03:12:45;;;;;;;8.40;5.73;;;18.30;54.50;;;;;;6159334;23;20165;-89
2023/09/07 03:15:12;;;;;;;7.20;5.93;;;16.60;50.20;;;;;;6159444;23;20587;-90
2023/09/07 03:17:37;;;;;;;8.33;6.53;;;16.60;47.30;;;;;;6158783;23;20157;-87
2023/09/07 03:20:16;;;;;;;6.80;5.40;;;17.80;46.40;;;;;;6160098;23;20191;-89
2023/09/07 03:22:42;;;;;;;10.47;6.33;;;16.50;43.00;;;;;;6160981;23;20164;-87
2023/09/07 03:25:12;;;;;;;9.17;6.40;;;16.50;41.70;;;;;;6160367;23;20153;-89
2023/09/07 03:27:38;;;;;;;9.17;6.37;;;17.40;44.80;;;;;;6161045;23;20162;-89
2023/09/07 03:30:05;;;;;;;7.67;6.10;;;17.80;44.80;;;;;;6166379;23;20157;-89
2023/09/07 03:32:33;;;;;;;9.23;6.57;;;16.30;43.60;;;;;;6162092;23;20161;-89
2023/09/07 03:35:00;;;;;;;8.03;5.67;;;16.30;43.70;;;;;;6164053;23;20165;-89
2023/09/07 03:37:28;;;;;;;11.20;5.80;;;17.10;44.20;;;;;;6164125;23;20244;-89
2023/09/07 03:39:56;;;;;;;6.80;6.00;;;16.10;43.00;;;;;;6163299;23;20157;-87
2023/09/07 03:42:22;;;;;;;7.07;5.83;;;16.10;44.70;;;;;;6162764;23;20649;-87
2023/09/07 03:44:47;;;;;;;9.77;6.60;;;16.20;45.60;;;;;;6160498;23;20236;-88
2023/09/07 03:47:14;;;;;;;10.03;6.60;;;16.10;46.80;;;;;;6161894;23;20184;-89
2023/09/07 03:49:40;;;;;;;10.17;7.33;;;16.30;54.70;;;;;;6139713;23;20571;-87
2023/09/07 03:52:07;;;;;;;14.00;7.57;;;17.90;57.10;;;;;;6139430;23;20161;-90
2023/09/07 03:54:32;;;;;;;10.47;7.30;;;16.10;57.90;;;;;;6114863;23;20587;-90
2023/09/07 03:56:58;;;;;;;10.40;6.50;;;16.00;58.40;;;;;;6139342;23;20181;-90
2023/09/07 03:59:24;;;;;;;10.83;7.43;;;15.90;57.40;;;;;;6152347;23;20201;-91
2023/09/07 04:01:50;;;;;;;11.40;6.77;;;15.90;56.90;;;;;;6139882;23;20158;-90
2023/09/07 04:04:16;;;;;;;11.37;6.87;;;16.10;55.40;;;;;;6139238;23;20184;-89
2023/09/07 04:06:42;;;;;;;10.43;7.07;;;15.80;54.90;;;;;;6128464;23;20161;-85
2023/09/07 04:09:07;;;;;;;10.67;7.00;;;16.10;57.10;;;;;;6162448;23;20158;-89
2023/09/07 04:11:33;;;;;;;11.73;6.70;;;15.70;59.20;;;;;;6162634;23;20149;-85
2023/09/07 04:14:01;;;;;;;17.77;7.50;;;17.70;63.90;;;;;;6162024;23;20172;-88
2023/09/07 04:16:26;;;;;;;8.50;6.73;;;16.00;66.90;;;;;;6159585;23;20200;-91
2023/09/07 04:18:52;;;;;;;8.53;6.50;;;15.50;68.00;;;;;;6158440;23;20197;-91
2023/09/07 04:21:18;;;;;;;11.73;6.57;;;16.40;67.70;;;;;;6137545;23;20161;-92
2023/09/07 04:23:45;;;;;;;8.73;7.07;;;15.60;67.30;;;;;;6137813;23;20172;-91
2023/09/07 04:26:11;;;;;;;7.73;6.90;;;15.50;68.10;;;;;;6136779;23;20182;-91
2023/09/07 04:28:38;;;;;;;8.47;7.20;;;16.20;70.00;;;;;;6137602;23;20638;-91
2023/09/07 04:31:06;;;;;;;7.10;6.20;;;15.50;67.20;;;;;;6137062;23;20161;-91
2023/09/07 04:33:35;;;;;;;8.57;7.00;;;15.50;67.60;;;;;;6136554;23;20161;-90
2023/09/07 04:36:11;;;;;;;8.27;6.57;;;15.50;68.00;;;;;;6136504;23;20181;-90
2023/09/07 04:38:37;;;;;;;12.53;7.13;;;15.40;67.90;;;;;;6137452;23;20629;-91
2023/09/07 04:41:11;;;;;;;9.53;7.23;;;15.50;70.00;;;;;;6136975;23;20165;-91
2023/09/07 04:43:38;;;;;;;8.47;7.00;;;15.40;68.10;;;;;;6136248;23;20158;-91
2023/09/07 04:46:06;;;;;;;8.40;7.23;;;15.30;70.30;;;;;;6139635;23;20177;-90
2023/09/07 04:48:34;;;;;;;9.67;6.87;;;16.30;73.90;;;;;;6179873;23;20483;-92
2023/09/07 04:51:04;;;;;;;9.37;6.83;;;15.30;73.30;;;;;;6137061;23;20162;-90
2023/09/07 04:53:32;;;;;;;10.53;6.77;;;16.50;76.30;;;;;;6136188;23;20216;-91
2023/09/07 04:55:59;;;;;;;10.50;6.53;;;15.60;76.20;;;;;;6136711;23;20185;-91
2023/09/07 04:58:25;;;;;;;10.33;7.30;;;15.30;77.10;;;;;;6136076;23;20200;-92
2023/09/07 05:00:51;;;;;;;12.17;7.03;;;15.50;82.90;;;;;;6140705;23;20162;-88
2023/09/07 05:03:17;;;;;;;8.80;6.37;;;15.70;92.60;;;;;;6142379;23;20185;-90
2023/09/07 05:05:46;;;;;;;9.43;7.37;;;15.50;94.90;;;;;;6161646;23;20173;-90
2023/09/07 05:08:12;;;;;;;10.80;7.40;;;15.50;96.10;;;;;;6135557;23;20161;-91
2023/09/07 05:10:38;;;;;;;10.17;7.20;;;17.20;98.90;;;;;;6136788;23;20166;-91
2023/09/07 05:13:04;;;;;;;9.53;7.73;;;15.60;97.70;;;;;;6161893;23;20161;-91
2023/09/07 05:15:30;;;;;;;13.10;8.13;;;15.50;97.00;;;;;;6162288;23;20228;-91
2023/09/07 05:17:56;;;;;;;8.90;7.20;;;16.00;99.30;;;;;;6135878;23;20561;-91
2023/09/07 05:20:23;;;;;;;10.87;8.20;;;16.90;99.10;;;;;;6111873;23;20188;-92
2023/09/07 05:22:49;;;;;;;10.47;7.03;;;15.60;95.60;;;;;;6161800;23;20169;-90
2023/09/07 05:25:15;;;;;;;8.97;7.90;;;16.60;94.40;;;;;;6136139;23;20188;-90
2023/09/07 05:27:40;;;;;;;9.47;7.77;;;15.70;91.80;;;;;;6137094;23;20244;-90
2023/09/07 05:30:07;;;;;;;11.17;8.50;;;15.70;90.20;;;;;;6165258;23;20154;-92
2023/09/07 05:32:32;;;;;;;11.80;7.60;;;15.70;87.50;;;;;;6135677;23;20165;-91
2023/09/07 05:34:58;;;;;;;11.70;7.63;;;15.70;85.50;;;;;;6135467;23;20158;-88
2023/09/07 05:37:23;;;;;;;10.20;7.00;;;15.80;89.80;;;;;;6135452;23;20154;-90
2023/09/07 05:39:49;;;;;;;11.63;7.50;;;15.80;84.40;;;;;;6136656;23;20186;-94
2023/09/07 05:42:15;;;;;;;9.83;7.20;;;15.90;88.60;;;;;;6137103;23;20169;-91
2023/09/07 05:44:41;;;;;;;9.50;6.47;;;15.90;84.10;;;;;;6137428;23;20161;-91
2023/09/07 05:47:07;;;;;;;8.37;7.00;;;17.00;80.30;;;;;;6163408;23;20181;-92
2023/09/07 05:49:33;;;;;;;8.50;6.87;;;16.60;79.90;;;;;;6137471;23;20571;-91
2023/09/07 05:51:58;;;;;;;19.20;8.20;;;16.10;80.00;;;;;;6163318;23;20599;-90
2023/09/07 05:54:24;;;;;;;12.27;6.67;;;16.10;84.10;;;;;;6137521;23;20619;-91
2023/09/07 05:56:49;;;;;;;10.30;6.93;;;16.10;80.90;;;;;;6149500;23;20194;-92
2023/09/07 05:59:15;;;;;;;14.73;6.70;;;16.30;80.30;;;;;;6162605;23;20224;-91
2023/09/07 06:01:41;;;;;;;12.20;6.90;;;17.20;78.90;;;;;;6138454;23;20158;-91
2023/09/07 06:04:07;;;;;;;7.83;6.30;;;18.40;76.30;;;;;;6137186;23;20161;-91
2023/09/07 06:06:33;;;;;;;11.60;6.87;;;17.40;74.20;;;;;;6137415;23;20726;-92
2023/09/07 06:09:01;;;;;;;8.77;6.60;;;18.60;77.30;;;;;;6137981;23;20166;-90
2023/09/07 06:11:26;;;;;;;16.03;7.23;;;16.80;70.80;;;;;;6135954;23;20529;-92
2023/09/07 06:13:52;;;;;;;12.33;6.60;;;17.00;73.40;;;;;;6136868;23;20184;-91
2023/09/07 06:16:18;;;;;;;13.03;6.73;;;16.60;77.30;;;;;;6136790;23;20185;-91
2023/09/07 06:18:44;;;;;;;8.97;6.33;;;16.50;73.10;;;;;;6163173;23;20208;-92
2023/09/07 06:21:09;;;;;;;10.33;6.17;;;18.60;75.90;;;;;;6136173;23;20582;-91
2023/09/07 06:23:35;;;;;;;8.20;5.93;;;16.60;77.50;;;;;;6136450;23;20161;-91
2023/09/07 06:26:01;;;;;;;10.00;6.80;;;17.90;79.00;;;;;;6135364;23;20177;-92
2023/09/07 06:28:27;;;;;;;12.57;6.27;;;16.80;74.20;;;;;;6136052;23;20169;-92
2023/09/07 06:30:53;;;;;;;9.13;6.40;;;18.30;82.30;;;;;;6136105;23;20609;-93
2023/09/07 06:33:18;;;;;;;7.90;6.07;;;17.10;78.40;;;;;;6136166;23;20166;-93
2023/09/07 06:35:44;;;;;;;14.73;6.43;;;17.80;68.50;;;;;;6135646;23;20177;-93
2023/09/07 06:38:10;;;;;;;10.90;5.67;;;17.10;71.00;;;;;;6148919;23;20173;-87
2023/09/07 06:40:35;;;;;;;11.17;5.93;;;17.70;61.50;;;;;;6143695;23;20166;-93
2023/09/07 06:43:05;;;;;;;8.13;5.53;;;17.40;54.30;;;;;;6135173;23;20196;-92
2023/09/07 06:45:34;;;;;;;6.33;5.20;;;18.60;44.20;;;;;;6136187;23;20228;-92
2023/09/07 06:48:00;;;;;;;11.23;5.77;;;17.60;34.20;;;;;;6150494;23;20184;-92
2023/09/07 06:50:25;;;;;;;7.23;5.13;;;17.70;26.50;;;;;;6166857;23;20169;-94
2023/09/07 06:52:51;;;;;;;5.90;4.73;;;17.70;20.10;;;;;;6166738;23;20594;-94
2023/09/07 06:55:17;;;;;;;9.50;5.63;;;18.00;14.60;;;;;;6166700;23;20188;-94
2023/09/07 06:57:42;;;;;;;7.17;4.90;;;18.30;1.00;;;;;;6167099;23;20191;-91
2023/09/07 07:00:08;;;;;;;7.60;4.90;;;18.80;1.00;;;;;;6166997;23;20153;-92
2023/09/07 07:02:34;;;;;;;6.00;4.50;;;18.50;1.00;;;;;;6167017;23;20640;-93
2023/09/07 07:05:00;;;;;;;7.23;4.53;;;18.40;1.00;;;;;;6167712;23;20160;-91
2023/09/07 07:07:26;;;;;;;10.90;4.83;;;19.30;1.00;;;;;;6167914;23;20181;-91
2023/09/07 07:09:52;;;;;;;10.30;4.60;;;19.40;1.00;;;;;;6166908;23;20244;-93
2023/09/07 07:12:18;;;;;;;7.47;4.47;;;19.00;1.00;;;;;;6166752;23;20161;-91
2023/09/07 07:14:44;;;;;;;5.17;4.50;;;19.20;1.00;;;;;;6166309;23;20183;-94
2023/09/07 07:17:12;;;;;;;6.50;4.30;;;19.30;1.00;;;;;;6166452;23;20184;-92
2023/09/07 07:19:38;;;;;;;7.83;4.60;;;20.20;1.00;;;;;;6166945;23;20193;-90
2023/09/07 07:22:04;;;;;;;10.93;5.10;;;20.10;1.00;;;;;;6166897;23;20160;-92
2023/09/07 07:24:29;;;;;;;7.30;4.03;;;19.70;1.00;;;;;;6165549;23;20215;-91
2023/09/07 07:26:55;;;;;;;8.60;4.60;;;20.80;1.00;;;;;;6165432;23;20272;-92
2023/09/07 07:29:20;;;;;;;10.33;4.57;;;20.00;1.00;;;;;;6192408;23;20161;-93
2023/09/07 07:31:46;;;;;;;6.50;4.20;;;20.10;1.00;;;;;;6165132;23;20188;-93
2023/09/07 07:34:12;;;;;;;8.77;4.50;;;20.20;1.00;;;;;;6165772;23;20165;-92
2023/09/07 07:36:38;;;;;;;7.80;4.30;;;20.40;1.00;;;;;;6192710;23;20177;-91
2023/09/07 07:39:06;;;;;;;7.47;4.33;;;20.50;1.00;;;;;;6164703;23;20291;-93
2023/09/07 07:41:32;;;;;;;7.77;4.00;;;20.60;99.90;;;;;;6165807;23;20163;-91
2023/09/07 07:43:58;;;;;;;4.80;3.83;;;21.00;99.90;;;;;;6165916;23;20160;-92
2023/09/07 07:46:25;;;;;;;9.43;4.07;;;20.80;99.90;;;;;;6164969;23;20177;-92
2023/09/07 07:48:51;;;;;;;7.07;4.33;;;20.90;1.00;;;;;;6165275;23;20183;-92
2023/09/07 07:51:16;;;;;;;5.47;4.17;;;21.00;1.00;;;;;;6164974;23;20153;-91
2023/09/07 07:53:42;;;;;;;6.23;4.03;;;21.20;99.90;;;;;;6166200;23;20164;-92
2023/09/07 07:56:18;;;;;;;8.07;4.50;;;21.30;1.00;;;;;;6164889;23;20184;-92
2023/09/07 07:58:44;;;;;;;7.60;3.70;;;21.40;39.10;;;;;;6164987;23;20334;-92
2023/09/07 08:01:20;;;;;;;9.43;4.67;;;21.50;99.90;;;;;;6190860;23;20191;-93
2023/09/07 08:03:45;;;;;;;10.67;4.33;;;21.60;48.00;;;;;;6165004;23;20160;-93
2023/09/07 08:06:11;;;;;;;9.17;4.63;;;21.70;1.00;;;;;;6191977;23;20516;-91
2023/09/07 08:08:38;;;;;;;12.93;5.23;;;21.90;91.40;;;;;;6165704;23;20220;-91
2023/09/07 08:11:05;;;;;;;6.60;5.03;;;21.90;99.90;;;;;;6164457;23;20181;-92
2023/09/07 08:13:35;;;;;;;9.63;5.07;;;22.00;99.90;;;;;;6165371;23;20165;-92
2023/09/07 08:16:04;;;;;;;8.80;5.10;;;22.10;1.00;;;;;;6191827;23;20224;-93
2023/09/07 08:18:32;;;;;;;15.40;5.10;;;22.20;1.00;;;;;;6165539;23;20185;-92
2023/09/07 08:20:57;;;;;;;11.67;5.37;;;22.30;1.00;;;;;;6167155;23;20158;-89
2023/09/07 08:23:23;;;;;;;8.57;5.43;;;22.40;1.00;;;;;;6164611;23;20166;-88
2023/09/07 08:25:51;;;;;;;5.93;4.97;;;22.50;1.00;;;;;;6164734;23;20200;-91
2023/09/07 08:28:18;;;;;;;10.50;6.97;;;22.60;99.90;;;;;;6165362;23;20165;-93
2023/09/07 08:30:44;;;;;;;9.37;6.07;;;22.80;1.00;;;;;;6164257;23;20220;-91
2023/09/07 08:33:10;;;;;;;11.77;4.77;;;22.90;1.00;;;;;;6180394;23;20230;-90
2023/09/07 08:35:37;;;;;;;9.23;5.57;;;23.00;99.90;;;;;;6173195;23;20189;-93
2023/09/07 08:38:08;;;;;;;5.70;4.73;;;23.00;99.90;;;;;;6167278;23;20180;-92
2023/09/07 08:40:35;;;;;;;10.07;4.57;;;23.10;99.90;;;;;;6166759;23;20164;-91
2023/09/07 08:43:03;;;;;;;6.50;4.70;;;23.10;99.90;;;;;;6166276;23;20164;-91
2023/09/07 08:45:31;;;;;;;8.07;5.13;;;23.20;71.50;;;;;;6166092;23;20633;-93
2023/09/07 08:47:58;;;;;;;8.20;4.93;;;23.30;1.00;;;;;;6167140;23;20231;-91
2023/09/07 08:50:24;;;;;;;7.17;4.40;;;23.40;1.00;;;;;;6193292;23;20613;-89
2023/09/07 08:52:52;;;;;;;10.20;5.33;;;23.50;1.00;;;;;;6142266;23;20192;-92
2023/09/07 08:55:18;;;;;;;5.80;4.50;;;23.50;1.00;;;;;;6166083;23;20193;-90
2023/09/07 08:57:43;;;;;;;11.07;5.03;;;23.70;1.00;;;;;;6165990;23;20161;-92
2023/09/07 09:00:15;;;;;;;8.37;4.70;;;23.80;1.00;;;;;;6166062;23;20152;-92
2023/09/07 09:02:41;;;;;;;9.67;4.93;;;23.90;1.00;;;;;;6192657;23;20130;-91
2023/09/07 09:05:09;;;;;;;12.60;5.20;;;24.00;1.00;;;;;;6141337;23;20679;-93
2023/09/07 09:07:35;;;;;;;6.73;4.63;;;24.00;1.00;;;;;;6165118;23;20201;-90
2023/09/07 09:10:07;;;;;;;9.07;5.13;;;24.10;1.00;;;;;;6191763;23;20157;-89
2023/09/07 09:12:34;;;;;;;9.63;5.40;;;24.20;1.00;;;;;;6191177;23;20165;-89
2023/09/07 09:15:04;;;;;;;9.77;5.10;;;24.30;1.00;;;;;;6165060;23;20165;-89
2023/09/07 09:17:29;;;;;;;10.80;5.43;;;24.40;1.00;;;;;;6167011;23;20180;-88
2023/09/07 09:19:55;;;;;;;6.03;5.03;;;24.50;1.00;;;;;;6164398;23;20539;-85
2023/09/07 09:22:21;;;;;;;10.23;5.60;;;24.50;1.00;;;;;;6164117;23;20606;-89
2023/09/07 09:24:50;;;;;;;7.57;5.13;;;24.60;1.00;;;;;;6164800;23;20224;-91
2023/09/07 09:27:17;;;;;;;13.77;5.47;;;24.70;1.00;;;;;;6163709;23;20255;-89
2023/09/07 09:29:42;;;;;;;6.57;4.50;;;24.80;99.90;;;;;;6164301;23;20160;-91
2023/09/07 09:32:08;;;;;;;7.93;4.40;;;24.90;99.90;;;;;;6190099;23;20157;-87
2023/09/07 09:34:35;;;;;;;4.87;4.10;;;25.10;99.90;;;;;;6163690;23;20188;-88
2023/09/07 09:37:03;;;;;;;5.30;4.80;;;25.10;99.90;;;;;;6190073;23;20227;-87
2023/09/07 09:39:29;;;;;;;7.03;4.80;;;25.20;99.90;;;;;;6139736;23;20563;-93
2023/09/07 09:41:57;;;;;;;7.47;3.93;;;25.20;99.90;;;;;;6163248;23;20676;-88
2023/09/07 09:44:26;;;;;;;4.70;4.20;;;25.40;99.90;;;;;;6163352;23;20161;-90
2023/09/07 09:46:56;;;;;;;12.73;5.23;;;25.50;99.90;;;;;;6188951;23;20177;-87
2023/09/07 09:49:22;;;;;;;7.50;4.33;;;25.60;99.90;;;;;;6189351;23;20184;-87
2023/09/07 09:51:51;;;;;;;7.37;4.50;;;25.70;99.90;;;;;;6166391;23;20160;-92
2023/09/07 09:54:22;;;;;;;13.43;4.60;;;25.80;99.90;;;;;;6201984;23;20157;-93
2023/09/07 09:56:48;;;;;;;7.30;4.00;;;25.90;99.90;;;;;;6193919;23;20191;-92
2023/09/07 09:59:14;;;;;;;9.23;4.10;;;26.00;99.90;;;;;;6167257;23;20204;-92
2023/09/07 10:01:46;;;;;;;7.60;3.87;;;26.00;91.90;;;;;;6167727;23;20587;-91
2023/09/07 10:04:17;;;;;;;4.00;3.60;;;26.10;92.00;;;;;;6167912;23;20203;-92
2023/09/07 10:07:05;;;;;;;6.30;4.20;;;26.20;99.90;;;;;;6167432;23;20215;-93
2023/09/07 10:09:33;;;;;;;6.53;3.97;;;26.30;99.90;;;;;;6168225;23;20157;-93
2023/09/07 10:12:03;;;;;;;7.10;4.10;;;26.40;99.90;;;;;;6167034;23;20157;-92
2023/09/07 10:14:39;;;;;;;9.93;4.37;;;26.40;99.90;;;;;;6167501;23;20160;-92
2023/09/07 10:17:05;;;;;;;6.17;3.90;;;26.50;99.90;;;;;;6168346;23;20184;-92
2023/09/07 10:19:36;;;;;;;5.50;3.70;;;26.70;99.90;;;;;;6169099;23;20189;-93
2023/09/07 10:22:03;;;;;;;4.60;3.50;;;26.80;99.90;;;;;;6169066;23;20161;-92
2023/09/07 10:24:37;;;;;;;7.07;3.70;;;26.80;86.20;;;;;;6173343;23;20141;-93
2023/09/07 10:27:06;;;;;;;4.17;3.47;;;26.90;32.40;;;;;;6181810;23;20185;-94
2023/09/07 10:29:54;;;;;;;5.63;3.60;;;27.00;86.40;;;;;;6168959;23;20240;-93
2023/09/07 10:32:20;;;;;;;4.37;3.33;;;27.10;99.90;;;;;;6167435;23;20149;-93
2023/09/07 10:34:46;;;;;;;4.93;3.00;;;27.20;11.60;;;;;;6142799;23;20227;-94
2023/09/07 10:37:13;;;;;;;5.67;3.53;;;27.30;11.40;;;;;;6167959;23;20221;-93
2023/09/07 10:39:40;;;;;;;3.93;3.00;;;27.40;65.20;;;;;;6166361;23;20185;-90
2023/09/07 10:42:05;;;;;;;5.03;3.53;;;27.40;12.70;;;;;;6193074;23;20149;-93
2023/09/07 10:44:31;;;;;;;7.20;3.70;;;27.50;7.50;;;;;;6167497;23;20247;-90
2023/09/07 10:46:57;;;;;;;6.80;3.33;;;27.60;41.30;;;;;;6167095;23;20177;-91
2023/09/07 10:49:24;;;;;;;5.50;3.47;;;27.70;25.50;;;;;;6137874;23;20622;-90
2023/09/07 10:51:49;;;;;;;5.80;3.30;;;27.80;13.00;;;;;;6138633;23;20161;-90
2023/09/07 10:54:23;;;;;;;4.05;3.05;;;27.90;68.90;;;;;;6137162;23;20165;-89
2023/09/07 10:56:49;;;;;;;6.78;2.88;;;28.00;21.20;;;;;;6136606;23;20185;-92
2023/09/07 10:59:16;;;;;;;9.50;3.30;;;28.00;1.00;;;;;;6136994;23;20200;-90
2023/09/07 11:01:44;;;;;;;4.60;3.38;;;28.10;1.00;;;;;;6137504;23;20208;-94
2023/09/07 11:04:13;;;;;;;6.18;2.90;;;28.20;1.00;;;;;;6137969;23;20240;-94
2023/09/07 11:06:40;;;;;;;5.57;3.00;;;28.30;1.00;;;;;;6163751;23;20173;-93
2023/09/07 11:09:08;;;;;;;4.43;3.00;;;28.40;99.90;;;;;;6139043;23;20602;-92
2023/09/07 11:11:35;;;;;;;3.25;2.78;;;28.50;99.90;;;;;;6139684;23;20161;-91
2023/09/07 11:14:03;;;;;;;4.90;3.03;;;28.50;32.20;;;;;;6164262;23;20161;-92
2023/09/07 11:16:29;;;;;;;3.88;3.17;;;28.60;1.00;;;;;;6137341;23;20190;-91
2023/09/07 11:18:55;;;;;;;4.55;3.05;;;28.60;1.00;;;;;;6137328;23;20219;-93
2023/09/07 11:21:21;;;;;;;3.63;3.28;;;28.80;1.00;;;;;;6164011;23;20156;-92
2023/09/07 11:23:46;;;;;;;4.50;2.80;;;28.90;1.00;;;;;;6163703;23;20150;-90
2023/09/07 11:26:13;;;;;;;4.43;2.88;;;28.90;1.00;;;;;;6138369;23;20210;-92
2023/09/07 11:28:39;;;;;;;4.20;3.33;;;29.00;1.00;;;;;;6138021;23;20513;-90
2023/09/07 11:31:04;;;;;;;5.22;2.75;;;29.20;1.00;;;;;;6138559;23;20170;-91
2023/09/07 11:33:34;;;;;;;4.07;2.83;;;29.30;1.00;;;;;;6137538;23;20162;-91
2023/09/07 11:35:59;;;;;;;3.78;3.40;;;29.40;1.00;;;;;;6137136;23;20209;-90
2023/09/07 11:38:29;;;;;;;6.72;2.70;;;29.50;1.00;;;;;;6142492;23;20212;-89
2023/09/07 11:40:55;;;;;;;3.35;2.67;;;29.50;1.00;;;;;;6138229;23;20221;-91
2023/09/07 11:43:20;;;;;;;4.75;2.80;;;29.60;1.00;;;;;;6138759;23;20157;-93
2023/09/07 11:45:47;;;;;;;5.80;2.88;;;29.50;1.00;;;;;;6139552;23;20177;-93
2023/09/07 11:48:14;;;;;;;3.80;2.70;;;29.70;1.00;;;;;;6155933;23;20617;-91
2023/09/07 11:50:40;;;;;;;5.13;2.92;;;29.70;1.00;;;;;;6169173;23;20187;-92
2023/09/07 11:53:06;;;;;;;5.85;2.63;;;29.80;1.00;;;;;;6170193;23;20192;-90
2023/09/07 11:55:34;;;;;;;5.07;2.97;;;29.80;1.00;;;;;;6169683;23;20252;-92
2023/09/07 11:58:04;;;;;;;3.47;2.85;;;29.90;1.00;;;;;;6168579;23;20166;-92
2023/09/07 12:00:31;;;;;;;3.90;2.72;;;30.00;96.10;;;;;;6167582;23;20157;-93
2023/09/07 12:02:57;;;;;;;3.97;2.90;;;30.00;1.00;;;;;;6167174;23;20215;-91
2023/09/07 12:05:25;;;;;;;4.03;3.00;;;30.10;1.00;;;;;;6168900;23;20181;-91
2023/09/07 12:07:50;;;;;;;5.57;2.70;;;30.10;1.00;;;;;;6144662;23;20165;-91
2023/09/07 12:10:16;;;;;;;4.60;2.58;;;30.30;1.00;;;;;;6197082;23;20160;-93
2023/09/07 12:12:44;;;;;;;3.42;2.55;;;30.30;1.00;;;;;;6170183;23;20161;-92
2023/09/07 12:15:13;;;;;;;3.38;2.72;;;30.30;1.00;;;;;;6184700;23;20165;-89
2023/09/07 12:17:40;;;;;;;6.28;3.10;;;30.30;1.00;;;;;;6173515;23;20149;-92
2023/09/07 12:20:10;;;;;;;4.55;2.53;;;30.40;1.00;;;;;;6169931;23;20239;-91
2023/09/07 12:22:39;;;;;;;2.80;2.50;;;30.40;1.00;;;;;;6170166;23;20205;-90
2023/09/07 12:25:10;;;;;;;3.30;2.80;;;30.50;1.00;;;;;;6169083;23;20188;-90
2023/09/07 12:27:36;;;;;;;6.10;3.10;;;30.50;1.00;;;;;;6170944;23;20271;-93
2023/09/07 12:30:08;;;;;;;6.32;2.83;;;30.60;1.00;;;;;;6169552;23;20169;-90
2023/09/07 12:32:35;;;;;;;8.27;4.00;;;30.60;1.00;;;;;;6145177;23;20196;-92
2023/09/07 12:35:02;;;;;;;3.33;3.00;;;30.70;1.00;;;;;;6169132;23;20215;-90
2023/09/07 12:37:28;;;;;;;4.93;2.97;;;30.70;1.00;;;;;;6167609;23;20470;-91
2023/09/07 12:39:53;;;;;;;3.83;2.92;;;30.70;1.00;;;;;;6167699;23;20180;-90
2023/09/07 12:42:19;;;;;;;7.40;2.80;;;30.80;1.00;;;;;;6167263;23;20175;-93
2023/09/07 12:44:45;;;;;;;5.72;2.90;;;30.90;1.00;;;;;;6168164;23;20172;-90
2023/09/07 12:47:10;;;;;;;7.10;3.30;;;30.90;1.00;;;;;;6167267;23;20180;-90